createdAt,value
2022-08-12T00:00:48.972Z,58.94
2022-08-12T00:02:03.610Z,63.08
2022-08-12T00:02:49.997Z,56.56
2022-08-12T00:03:48.923Z,59.31
2022-08-12T00:04:49.925Z,64.18
2022-08-12T00:06:00.452Z,62.29
2022-08-12T00:06:49.932Z,63.59
2022-08-12T00:07:48.895Z,57.81
2022-08-12T00:08:48.883Z,57.90
2022-08-12T00:09:49.371Z,61.95
2022-08-12T00:10:48.870Z,63.22
2022-08-12T00:11:49.090Z,62.78
2022-08-12T00:12:49.084Z,59.84
2022-08-12T00:13:49.066Z,60.35
2022-08-12T00:14:49.097Z,57.15
2022-08-12T00:15:49.004Z,60.27
2022-08-12T00:16:49.112Z,56.98
2022-08-12T00:17:49.019Z,57.53
2022-08-12T00:18:49.024Z,61.73
2022-08-12T00:19:48.966Z,59.42
2022-08-12T00:20:49.035Z,60.46
2022-08-12T00:21:48.802Z,59.25
2022-08-12T00:22:58.804Z,57.54
2022-08-12T00:23:49.758Z,55.93
2022-08-12T00:24:48.771Z,61.37
2022-08-12T00:26:18.992Z,60.16
2022-08-12T00:26:49.757Z,59.96
2022-08-12T00:27:48.729Z,55.76
2022-08-12T00:28:48.715Z,55.81
2022-08-12T00:29:49.706Z,59.29
2022-08-12T00:30:48.699Z,55.99
2022-08-12T00:31:48.728Z,56.91
2022-08-12T00:32:54.919Z,59.39
2022-08-12T00:33:52.483Z,58.29
2022-08-12T00:34:49.485Z,59.66
2022-08-12T00:35:48.646Z,60.90
2022-08-12T00:36:50.151Z,59.60
2022-08-12T00:37:48.661Z,58.84
2022-08-12T00:38:48.642Z,61.85
2022-08-12T00:39:48.733Z,59.22
2022-08-12T00:40:48.603Z,58.62
2022-08-12T00:41:48.641Z,55.85
2022-08-12T00:42:48.591Z,56.99
2022-08-12T00:43:48.586Z,62.02
2022-08-12T00:44:48.586Z,61.70
2022-08-12T00:45:48.575Z,63.39
2022-08-12T00:47:25.024Z,56.72
2022-08-12T00:47:49.553Z,66.55
2022-08-12T00:48:48.548Z,63.71
2022-08-12T00:49:50.368Z,64.40
2022-08-12T00:50:48.531Z,60.56
2022-08-12T00:51:48.523Z,55.82
2022-08-12T00:52:48.540Z,58.06
2022-08-12T00:53:48.496Z,58.71
2022-08-12T00:54:48.493Z,58.66
2022-08-12T00:55:48.489Z,65.92
2022-08-12T00:56:48.466Z,56.35
2022-08-12T00:57:48.529Z,60.97
2022-08-12T00:58:48.458Z,62.93
2022-08-12T00:59:48.450Z,65.87
2022-08-12T01:00:48.454Z,56.29
2022-08-12T01:02:00.974Z,57.18
2022-08-12T01:02:49.457Z,58.79
2022-08-12T01:03:48.420Z,64.68
2022-08-12T01:04:48.403Z,67.33
2022-08-12T01:05:48.409Z,64.99
2022-08-12T01:06:50.918Z,64.67
2022-08-12T01:07:49.409Z,59.73
2022-08-12T01:08:48.365Z,63.88
2022-08-12T01:09:48.368Z,59.27
2022-08-12T01:10:48.357Z,60.42
2022-08-12T01:11:48.341Z,59.68
2022-08-12T01:12:48.359Z,66.65
2022-08-12T01:13:48.332Z,66.57
2022-08-12T01:14:48.322Z,59.90
2022-08-12T01:15:48.316Z,65.69
2022-08-12T01:16:48.302Z,62.75
2022-08-12T01:17:48.321Z,59.51
2022-08-12T01:18:48.287Z,61.40
2022-08-12T01:19:49.270Z,58.48
2022-08-12T01:20:48.276Z,61.39
2022-08-12T01:21:48.285Z,60.44
2022-08-12T01:22:48.279Z,59.83
2022-08-12T01:23:48.251Z,63.03
2022-08-12T01:24:48.252Z,63.31
2022-08-12T01:25:56.146Z,62.25
2022-08-12T01:26:49.222Z,58.32
2022-08-12T01:27:48.253Z,59.56
2022-08-12T01:28:48.206Z,63.72
2022-08-12T01:29:48.200Z,65.89
2022-08-12T01:30:48.195Z,59.07
2022-08-12T01:31:48.179Z,61.60
2022-08-12T01:32:48.543Z,60.43
2022-08-12T01:33:48.165Z,57.93
2022-08-12T01:34:48.155Z,58.36
2022-08-12T01:35:57.873Z,68.74
2022-08-12T01:36:49.134Z,68.97
2022-08-12T01:37:48.127Z,61.93
2022-08-12T01:38:48.154Z,57.85
2022-08-12T01:40:34.914Z,58.84
2022-08-12T01:40:49.222Z,59.10
2022-08-12T01:41:53.576Z,68.70
2022-08-12T01:42:49.088Z,58.24
2022-08-12T01:43:48.113Z,58.51
2022-08-12T01:44:48.075Z,64.94
2022-08-12T01:45:48.065Z,58.65
2022-08-12T01:46:48.141Z,59.33
2022-08-12T01:47:48.050Z,59.85
2022-08-12T01:48:48.062Z,61.86
2022-08-12T01:49:48.031Z,60.39
2022-08-12T01:50:48.021Z,55.01
2022-08-12T01:52:21.551Z,56.70
2022-08-12T01:52:49.000Z,56.00
2022-08-12T01:53:48.728Z,65.19
2022-08-12T01:54:47.989Z,59.06
2022-08-12T01:55:47.976Z,58.50
2022-08-12T01:56:47.963Z,59.00
2022-08-12T01:57:59.656Z,61.71
2022-08-12T01:58:48.987Z,60.43
2022-08-12T01:59:47.941Z,59.41
2022-08-12T02:00:54.960Z,60.45
2022-08-12T02:01:48.999Z,60.68
2022-08-12T02:02:47.920Z,59.61
2022-08-12T02:03:47.936Z,61.48
2022-08-12T02:04:47.896Z,61.67
2022-08-12T02:05:47.885Z,71.72
2022-08-12T02:06:47.884Z,59.35
2022-08-12T02:07:47.870Z,59.27
2022-08-12T02:08:47.897Z,62.84
2022-08-12T02:09:47.859Z,59.27
2022-08-12T02:10:49.958Z,61.83
2022-08-12T02:11:47.839Z,60.97
2022-08-12T02:12:47.870Z,60.14
2022-08-12T02:13:49.321Z,60.97
2022-08-12T02:14:47.818Z,58.32
2022-08-12T02:15:47.807Z,57.79
2022-08-12T02:16:47.801Z,64.00
2022-08-12T02:17:56.286Z,63.91
2022-08-12T02:18:48.811Z,62.51
2022-08-12T02:19:47.784Z,61.92
2022-08-12T02:20:52.462Z,61.29
2022-08-12T02:21:48.767Z,57.49
2022-08-12T02:22:47.769Z,62.64
2022-08-12T02:23:47.769Z,63.91
2022-08-12T02:24:47.729Z,57.23
2022-08-12T02:25:47.725Z,62.26
2022-08-12T02:26:47.717Z,59.25
2022-08-12T02:27:47.720Z,59.33
2022-08-12T02:28:47.724Z,57.84
2022-08-12T02:29:47.684Z,64.71
2022-08-12T02:30:47.675Z,62.23
2022-08-12T02:31:47.727Z,70.05
2022-08-12T02:32:47.694Z,71.30
2022-08-12T02:33:47.767Z,71.51
2022-08-12T02:34:47.656Z,71.33
2022-08-12T02:35:47.680Z,71.83
2022-08-12T02:36:47.648Z,72.70
2022-08-12T02:37:47.675Z,71.52
2022-08-12T02:38:47.644Z,71.26
2022-08-12T02:39:47.641Z,70.73
2022-08-12T02:40:47.585Z,72.36
2022-08-12T02:41:47.585Z,67.04
2022-08-12T02:42:47.638Z,71.15
2022-08-12T02:43:47.594Z,71.76
2022-08-12T02:44:47.571Z,73.07
2022-08-12T02:45:47.561Z,71.69
2022-08-12T02:46:47.540Z,71.50
2022-08-12T02:47:57.143Z,71.47
2022-08-12T02:48:48.550Z,71.00
2022-08-12T02:49:47.568Z,73.59
2022-08-12T02:50:47.528Z,71.34
2022-08-12T02:51:47.526Z,73.42
2022-08-12T02:52:47.490Z,71.27
2022-08-12T02:54:03.320Z,72.31
2022-08-12T02:54:48.505Z,71.70
2022-08-12T02:55:47.473Z,72.22
2022-08-12T02:56:50.770Z,64.77
2022-08-12T02:57:47.454Z,62.26
2022-08-12T02:58:47.479Z,71.67
2022-08-12T02:59:47.431Z,73.13
2022-08-12T03:00:47.530Z,71.94
2022-08-12T03:01:47.602Z,73.10
2022-08-12T03:02:47.402Z,71.81
2022-08-12T03:03:47.420Z,71.49
2022-08-12T03:04:47.393Z,71.80
2022-08-12T03:05:47.385Z,71.16
2022-08-12T03:06:47.390Z,71.60
2022-08-12T03:07:59.840Z,70.85
2022-08-12T03:08:51.832Z,70.99
2022-08-12T03:10:05.348Z,71.87
2022-08-12T03:10:48.411Z,71.56
2022-08-12T03:11:48.955Z,72.08
2022-08-12T03:12:49.318Z,71.38
2022-08-12T03:13:47.346Z,71.66
2022-08-12T03:14:47.317Z,72.81
2022-08-12T03:15:47.304Z,71.44
2022-08-12T03:16:47.284Z,72.20
2022-08-12T03:17:47.306Z,71.66
2022-08-12T03:18:48.325Z,71.45
2022-08-12T03:20:08.814Z,74.08
2022-08-12T03:20:48.257Z,71.40
2022-08-12T03:21:54.703Z,72.88
2022-08-12T03:22:48.260Z,70.91
2022-08-12T03:23:47.325Z,73.51
2022-08-12T03:24:47.225Z,72.77
2022-08-12T03:25:47.229Z,72.23
2022-08-12T03:26:47.204Z,68.76
2022-08-12T03:27:47.230Z,70.85
2022-08-12T03:28:47.320Z,71.64
2022-08-12T03:29:50.035Z,72.23
2022-08-12T03:30:47.177Z,71.17
2022-08-12T03:31:47.164Z,65.83
2022-08-12T03:32:47.406Z,69.44
2022-08-12T03:34:02.385Z,66.95
2022-08-12T03:34:48.182Z,64.82
2022-08-12T03:35:47.154Z,69.27
2022-08-12T03:36:47.167Z,70.35
2022-08-12T03:37:47.100Z,73.80
2022-08-12T03:38:47.190Z,73.69
2022-08-12T03:39:47.219Z,74.37
2022-08-12T03:40:47.111Z,72.38
2022-08-12T03:41:47.099Z,73.63
2022-08-12T03:42:47.088Z,72.91
2022-08-12T03:43:47.095Z,72.85
2022-08-12T03:44:47.135Z,73.85
2022-08-12T03:45:52.338Z,73.92
2022-08-12T03:46:48.055Z,72.64
2022-08-12T03:47:47.035Z,72.96
2022-08-12T03:48:47.032Z,72.69
2022-08-12T03:49:47.052Z,72.75
2022-08-12T03:50:47.057Z,72.29
2022-08-12T03:51:46.993Z,70.62
2022-08-12T03:52:46.979Z,68.52
2022-08-12T03:53:46.997Z,73.09
2022-08-12T03:54:47.053Z,75.62
2022-08-12T03:55:46.956Z,72.49
2022-08-12T03:56:46.938Z,72.53
2022-08-12T03:57:48.566Z,72.68
2022-08-12T03:58:46.925Z,72.27
2022-08-12T03:59:46.951Z,71.10
2022-08-12T04:00:47.010Z,72.10
2022-08-12T04:01:46.895Z,61.14
2022-08-12T04:02:47.896Z,66.82
2022-08-12T04:03:46.888Z,61.97
2022-08-12T04:04:46.910Z,68.21
2022-08-12T04:05:54.698Z,67.88
2022-08-12T04:06:47.863Z,72.94
2022-08-12T04:07:56.340Z,72.94
2022-08-12T04:08:47.847Z,72.65
2022-08-12T04:09:46.859Z,72.88
2022-08-12T04:10:46.832Z,72.60
2022-08-12T04:11:47.281Z,71.19
2022-08-12T04:12:46.813Z,73.36
2022-08-12T04:13:46.800Z,73.22
2022-08-12T04:14:46.823Z,72.77
2022-08-12T04:15:46.780Z,73.15
2022-08-12T04:16:46.776Z,73.00
2022-08-12T04:18:07.329Z,72.83
2022-08-12T04:18:47.760Z,73.39
2022-08-12T04:19:46.779Z,73.06
2022-08-12T04:20:46.740Z,75.29
2022-08-12T04:22:02.180Z,73.70
2022-08-12T04:22:47.716Z,73.74
2022-08-12T04:23:48.681Z,73.05
2022-08-12T04:24:50.530Z,73.54
2022-08-12T04:25:46.701Z,74.45
2022-08-12T04:26:46.689Z,72.85
2022-08-12T04:27:46.690Z,71.78
2022-08-12T04:28:46.685Z,72.45
2022-08-12T04:30:21.193Z,73.07
2022-08-12T04:30:47.656Z,72.10
2022-08-12T04:31:46.654Z,73.07
2022-08-12T04:32:46.813Z,73.43
2022-08-12T04:33:47.634Z,73.30
2022-08-12T04:34:46.648Z,71.43
2022-08-12T04:35:46.619Z,72.72
2022-08-12T04:36:46.611Z,73.24
2022-08-12T04:37:58.094Z,73.31
2022-08-12T04:38:47.582Z,72.99
2022-08-12T04:39:46.665Z,71.41
2022-08-12T04:40:46.573Z,73.32
2022-08-12T04:41:56.067Z,74.18
2022-08-12T04:42:47.554Z,71.79
2022-08-12T04:44:00.206Z,73.42
2022-08-12T04:44:47.594Z,72.31
2022-08-12T04:45:46.531Z,72.74
2022-08-12T04:46:46.514Z,73.37
2022-08-12T04:47:46.516Z,72.38
2022-08-12T04:48:46.514Z,71.56
2022-08-12T04:49:46.530Z,71.25
2022-08-12T04:50:46.491Z,73.31
2022-08-12T04:51:57.597Z,74.18
2022-08-12T04:52:47.467Z,71.43
2022-08-12T04:53:46.463Z,70.92
2022-08-12T04:54:46.486Z,72.73
2022-08-12T04:55:46.459Z,71.42
2022-08-12T04:57:04.887Z,72.14
2022-08-12T04:57:47.440Z,71.80
2022-08-12T04:58:50.628Z,70.81
2022-08-12T04:59:49.051Z,72.55
2022-08-12T05:00:46.423Z,72.81
2022-08-12T05:01:46.393Z,70.93
2022-08-12T05:02:46.460Z,72.45
2022-08-12T05:03:48.348Z,72.54
2022-08-12T05:04:46.427Z,71.91
2022-08-12T05:05:46.380Z,71.80
2022-08-12T05:06:46.366Z,71.84
2022-08-12T05:07:53.845Z,69.79
2022-08-12T05:08:47.332Z,71.76
2022-08-12T05:10:00.204Z,71.36
2022-08-12T05:10:47.337Z,73.58
2022-08-12T05:11:53.727Z,72.52
2022-08-12T05:12:47.383Z,70.31
2022-08-12T05:13:46.305Z,69.86
2022-08-12T05:14:46.337Z,71.99
2022-08-12T05:16:05.178Z,72.61
2022-08-12T05:16:48.278Z,65.38
2022-08-12T05:17:46.263Z,67.58
2022-08-12T05:18:46.253Z,66.25
2022-08-12T05:19:46.271Z,70.19
2022-08-12T05:20:46.234Z,65.28
2022-08-12T05:21:46.239Z,65.03
2022-08-12T05:22:46.220Z,68.59
2022-08-12T05:23:46.222Z,75.44
2022-08-12T05:24:46.234Z,68.08
2022-08-12T05:25:46.195Z,65.25
2022-08-12T05:26:46.185Z,65.98
2022-08-12T05:27:55.505Z,66.19
2022-08-12T05:28:47.165Z,69.32
2022-08-12T05:30:07.198Z,65.02
2022-08-12T05:30:47.149Z,65.69
2022-08-12T05:31:48.381Z,69.33
2022-08-12T05:32:46.137Z,67.72
2022-08-12T05:33:46.127Z,67.04
2022-08-12T05:34:46.152Z,68.12
2022-08-12T05:35:46.115Z,68.88
2022-08-12T05:36:46.106Z,70.29
2022-08-12T05:37:46.099Z,67.26
2022-08-12T05:38:46.097Z,71.75
2022-08-12T05:39:46.130Z,65.40
2022-08-12T05:40:46.068Z,70.21
2022-08-12T05:41:46.056Z,66.93
2022-08-12T05:42:46.399Z,66.67
2022-08-12T05:43:46.050Z,63.30
2022-08-12T05:44:46.067Z,68.98
2022-08-12T05:45:46.023Z,67.45
2022-08-12T05:46:46.020Z,68.43
2022-08-12T05:47:53.599Z,64.26
2022-08-12T05:48:46.999Z,71.00
2022-08-12T05:49:46.025Z,63.77
2022-08-12T05:50:45.986Z,67.61
2022-08-12T05:51:45.973Z,64.95
2022-08-12T05:52:45.964Z,71.16
2022-08-12T05:53:45.958Z,65.67
2022-08-12T05:54:56.968Z,66.78
2022-08-12T05:55:47.944Z,67.53
2022-08-12T05:56:45.933Z,67.09
2022-08-12T05:57:45.958Z,65.20
2022-08-12T05:58:45.930Z,65.64
2022-08-12T05:59:45.913Z,62.50
2022-08-12T06:00:45.940Z,63.89
2022-08-12T06:02:11.291Z,65.01
2022-08-12T06:02:46.955Z,62.88
2022-08-12T06:03:45.879Z,67.25
2022-08-12T06:04:45.881Z,65.03
2022-08-12T06:05:55.022Z,66.09
2022-08-12T06:06:46.848Z,69.34
2022-08-12T06:08:00.549Z,60.89
2022-08-12T06:08:46.833Z,69.99
2022-08-12T06:09:45.832Z,68.55
2022-08-12T06:10:45.842Z,67.77
2022-08-12T06:12:04.739Z,66.85
2022-08-12T06:12:46.790Z,67.64
2022-08-12T06:13:53.213Z,64.81
2022-08-12T06:14:46.787Z,66.96
2022-08-12T06:15:45.804Z,67.32
2022-08-12T06:16:45.771Z,65.37
2022-08-12T06:17:45.849Z,62.93
2022-08-12T06:18:45.745Z,69.32
2022-08-12T06:20:27.306Z,66.27
2022-08-12T06:20:46.775Z,63.86
2022-08-12T06:21:45.717Z,68.05
2022-08-12T06:22:45.708Z,64.85
2022-08-12T06:23:45.700Z,66.56
2022-08-12T06:24:45.704Z,61.69
2022-08-12T06:25:45.723Z,64.71
2022-08-12T06:26:45.682Z,68.68
2022-08-12T06:28:06.723Z,68.22
2022-08-12T06:28:46.659Z,65.92
2022-08-12T06:30:09.585Z,65.06
2022-08-12T06:31:08.189Z,67.79
2022-08-12T06:31:47.654Z,63.96
2022-08-12T06:33:04.354Z,67.45
2022-08-12T06:33:55.333Z,65.30
2022-08-12T06:35:25.358Z,65.29
2022-08-12T06:35:49.301Z,66.00
2022-08-12T06:36:45.598Z,65.78
2022-08-12T06:37:45.589Z,66.43
2022-08-12T06:38:46.577Z,69.13
2022-08-12T06:39:45.648Z,63.02
2022-08-12T06:40:45.597Z,64.87
2022-08-12T06:42:05.204Z,66.72
2022-08-12T06:42:46.940Z,67.32
2022-08-12T06:44:05.889Z,68.29
2022-08-12T06:44:46.537Z,67.90
2022-08-12T06:45:46.812Z,66.48
2022-08-12T06:46:45.514Z,66.88
2022-08-12T06:47:45.509Z,70.21
2022-08-12T06:48:45.497Z,67.32
2022-08-12T06:49:45.496Z,65.86
2022-08-12T06:50:45.778Z,67.44
2022-08-12T06:51:56.661Z,66.21
2022-08-12T06:52:46.584Z,68.73
2022-08-12T06:53:45.681Z,69.81
2022-08-12T06:54:45.457Z,65.79
2022-08-12T06:55:58.294Z,65.82
2022-08-12T06:57:03.454Z,67.04
2022-08-12T06:58:08.248Z,66.30
2022-08-12T06:58:46.417Z,69.78
2022-08-12T06:59:45.418Z,69.34
2022-08-12T07:00:45.461Z,68.23
2022-08-12T07:01:51.097Z,67.49
2022-08-12T07:02:46.380Z,66.13
2022-08-12T07:03:45.382Z,68.44
2022-08-12T07:04:45.380Z,65.38
2022-08-12T07:05:45.364Z,64.04
2022-08-12T07:06:45.389Z,67.06
2022-08-12T07:07:45.341Z,65.09
2022-08-12T07:08:45.350Z,63.59
2022-08-12T07:10:06.705Z,67.28
2022-08-12T07:10:46.327Z,64.54
2022-08-12T07:11:47.283Z,64.11
2022-08-12T07:12:46.325Z,65.38
2022-08-12T07:14:12.457Z,64.90
2022-08-12T07:14:48.925Z,63.58
2022-08-12T07:15:46.284Z,68.73
2022-08-12T07:16:45.301Z,65.44
2022-08-12T07:17:45.271Z,65.28
2022-08-12T07:18:45.264Z,63.93
2022-08-12T07:19:45.617Z,66.23
2022-08-12T07:20:53.345Z,61.44
2022-08-12T07:21:59.981Z,68.60
2022-08-12T07:22:46.229Z,66.07
2022-08-12T07:23:45.220Z,66.66
2022-08-12T07:24:45.212Z,64.77
2022-08-12T07:25:45.217Z,67.77
2022-08-12T07:26:45.217Z,64.84
2022-08-12T07:27:45.233Z,66.98
2022-08-12T07:28:45.174Z,64.03
2022-08-12T07:30:03.862Z,68.20
2022-08-12T07:30:46.158Z,66.87
2022-08-12T07:31:45.201Z,68.22
2022-08-12T07:32:45.149Z,67.25
2022-08-12T07:33:45.136Z,63.65
2022-08-12T07:34:45.141Z,68.03
2022-08-12T07:35:45.106Z,62.93
2022-08-12T07:36:45.138Z,62.98
2022-08-12T07:37:45.106Z,59.58
2022-08-12T07:38:45.093Z,64.01
2022-08-12T07:39:50.719Z,61.47
2022-08-12T07:40:46.078Z,67.10
2022-08-12T07:41:45.101Z,61.23
2022-08-12T07:42:45.061Z,66.49
2022-08-12T07:43:45.055Z,60.80
2022-08-12T07:44:45.042Z,67.71
2022-08-12T07:45:45.043Z,66.72
2022-08-12T07:46:45.064Z,65.16
2022-08-12T07:47:45.024Z,62.60
2022-08-12T07:48:45.017Z,68.02
2022-08-12T07:50:04.558Z,64.64
2022-08-12T07:50:46.000Z,64.69
2022-08-12T07:51:45.027Z,64.63
2022-08-12T07:52:44.981Z,66.66
2022-08-12T07:54:00.203Z,64.20
2022-08-12T07:54:45.985Z,66.70
2022-08-12T07:55:44.954Z,68.14
2022-08-12T07:56:44.985Z,62.71
2022-08-12T07:57:44.947Z,65.55
2022-08-12T07:58:47.154Z,66.13
2022-08-12T07:59:45.938Z,63.13
2022-08-12T08:00:44.918Z,65.46
2022-08-12T08:01:45.004Z,68.06
2022-08-12T08:02:44.910Z,68.13
2022-08-12T08:03:47.551Z,68.47
2022-08-12T08:04:44.904Z,65.45
2022-08-12T08:05:44.894Z,67.23
2022-08-12T08:06:44.907Z,65.61
2022-08-12T08:07:44.869Z,63.33
2022-08-12T08:08:44.872Z,65.70
2022-08-12T08:09:44.858Z,67.52
2022-08-12T08:10:44.861Z,66.33
2022-08-12T08:11:44.882Z,67.27
2022-08-12T08:12:44.845Z,64.91
2022-08-12T08:13:44.828Z,68.25
2022-08-12T08:14:44.822Z,62.04
2022-08-12T08:16:02.412Z,60.72
2022-08-12T08:16:46.852Z,66.70
2022-08-12T08:17:44.802Z,65.66
2022-08-12T08:18:44.809Z,64.68
2022-08-12T08:20:03.586Z,64.90
2022-08-12T08:20:45.788Z,63.72
2022-08-12T08:21:44.813Z,67.26
2022-08-12T08:22:44.864Z,68.19
2022-08-12T08:23:46.165Z,63.56
2022-08-12T08:24:44.755Z,65.13
2022-08-12T08:25:44.746Z,65.93
2022-08-12T08:26:44.757Z,60.71
2022-08-12T08:27:44.776Z,67.68
2022-08-12T08:28:44.726Z,63.74
2022-08-12T08:29:44.725Z,59.15
2022-08-12T08:30:44.737Z,67.23
2022-08-12T08:31:45.552Z,65.35
2022-08-12T08:32:45.720Z,60.17
2022-08-12T08:34:05.227Z,68.14
2022-08-12T08:34:54.228Z,68.11
2022-08-12T08:35:47.769Z,65.22
2022-08-12T08:36:44.722Z,61.29
2022-08-12T08:37:44.687Z,62.86
2022-08-12T08:38:44.648Z,62.87
2022-08-12T08:39:45.652Z,68.20
2022-08-12T08:40:44.634Z,61.65
2022-08-12T08:42:19.111Z,60.84
2022-08-12T08:42:50.806Z,67.37
2022-08-12T08:43:46.662Z,65.03
2022-08-12T08:44:44.615Z,63.33
2022-08-12T08:45:44.607Z,63.66
2022-08-12T08:46:44.708Z,61.06
2022-08-12T08:47:44.626Z,63.69
2022-08-12T08:48:44.584Z,64.75
2022-08-12T08:49:44.574Z,65.26
2022-08-12T08:50:44.574Z,64.62
2022-08-12T08:51:44.580Z,66.77
2022-08-12T08:52:44.587Z,65.18
2022-08-12T08:53:44.585Z,66.93
2022-08-12T08:54:45.540Z,67.72
2022-08-12T08:56:04.131Z,66.46
2022-08-12T08:56:46.621Z,63.07
2022-08-12T08:57:44.860Z,62.79
2022-08-12T08:58:45.507Z,66.02
2022-08-12T08:59:45.507Z,64.99
2022-08-12T09:00:49.434Z,62.88
2022-08-12T09:01:44.765Z,68.39
2022-08-12T09:02:49.196Z,63.89
2022-08-12T09:05:07.306Z,61.84
2022-08-12T09:05:13.906Z,68.95
2022-08-12T09:06:02.650Z,68.92
2022-08-12T09:06:53.819Z,63.13
2022-08-12T09:07:58.946Z,69.24
2022-08-12T09:08:46.472Z,64.17
2022-08-12T09:10:02.762Z,67.51
2022-08-12T09:10:45.830Z,66.92
2022-08-12T09:12:10.603Z,65.12
2022-08-12T09:12:45.415Z,68.21
2022-08-12T09:14:12.558Z,70.28
2022-08-12T09:16:45.412Z,60.69
2022-08-12T09:17:44.381Z,65.83
2022-08-12T09:18:44.399Z,68.38
2022-08-12T09:19:44.363Z,67.59
2022-08-12T09:20:44.365Z,64.88
2022-08-12T09:21:54.600Z,64.50
2022-08-12T09:22:49.063Z,60.19
2022-08-12T09:23:57.243Z,62.44
2022-08-12T09:24:45.327Z,66.42
2022-08-12T09:25:44.332Z,64.62
2022-08-12T09:30:10.971Z,67.63
2022-08-12T09:30:45.296Z,61.48
2022-08-12T09:32:07.856Z,67.01
2022-08-12T09:33:01.498Z,65.85
2022-08-12T09:34:25.212Z,63.56
2022-08-12T09:34:50.818Z,65.48
2022-08-12T09:35:46.218Z,62.55
2022-08-12T09:37:00.742Z,68.02
2022-08-12T09:37:58.241Z,69.83
2022-08-12T09:39:00.012Z,66.13
2022-08-12T09:40:01.828Z,64.31
2022-08-12T09:40:57.090Z,65.51
2022-08-12T09:42:08.449Z,67.05
2022-08-12T09:43:04.816Z,61.08
2022-08-12T09:43:53.339Z,66.44
2022-08-12T09:44:45.230Z,67.39
2022-08-12T09:46:06.559Z,68.65
2022-08-12T09:46:45.328Z,68.26
2022-08-12T09:47:45.177Z,67.65
2022-08-12T09:48:56.470Z,62.70
2022-08-12T09:49:45.153Z,65.71
2022-08-12T09:50:50.640Z,65.22
2022-08-12T09:51:45.157Z,67.06
2022-08-12T09:52:44.325Z,63.75
2022-08-12T09:53:44.185Z,64.31
2022-08-12T09:54:44.130Z,70.53
2022-08-12T09:56:56.914Z,66.59
2022-08-12T09:57:01.894Z,68.35
2022-08-12T09:58:46.234Z,62.95
2022-08-12T09:59:00.961Z,65.18
2022-08-12T10:00:15.014Z,71.62
2022-08-12T10:00:52.030Z,66.77
2022-08-12T10:02:43.021Z,63.35
2022-08-12T10:02:50.071Z,65.08
2022-08-12T10:04:02.968Z,62.14
2022-08-12T10:04:51.587Z,66.78
2022-08-12T10:06:19.886Z,64.20
2022-08-12T10:06:54.201Z,71.06
2022-08-12T10:07:45.022Z,67.86
2022-08-12T10:08:44.017Z,63.73
2022-08-12T10:09:58.432Z,70.87
2022-08-12T10:10:45.028Z,65.78
2022-08-12T10:12:10.148Z,66.95
2022-08-12T10:13:06.663Z,71.15
2022-08-12T10:13:45.016Z,68.64
2022-08-12T10:14:49.986Z,66.66
2022-08-12T10:16:02.773Z,66.51
2022-08-12T10:16:44.983Z,64.15
2022-08-12T10:18:05.948Z,63.59
2022-08-12T10:18:51.226Z,65.03
2022-08-12T10:19:51.618Z,64.31
2022-08-12T10:20:44.944Z,64.58
2022-08-12T10:21:43.921Z,67.90
2022-08-12T10:22:43.931Z,65.77
2022-08-12T10:23:45.933Z,64.62
2022-08-12T10:24:43.947Z,66.33
2022-08-12T10:26:34.686Z,66.51
2022-08-12T10:26:45.027Z,69.47
2022-08-12T10:28:03.636Z,68.47
2022-08-12T10:29:01.804Z,66.78
2022-08-12T10:30:03.908Z,61.75
2022-08-12T10:30:58.099Z,66.78
2022-08-12T10:32:19.458Z,69.55
2022-08-12T10:32:56.179Z,64.58
2022-08-12T10:34:04.903Z,66.60
2022-08-12T10:34:53.128Z,65.78
2022-08-12T10:35:44.814Z,68.35
2022-08-12T10:36:43.805Z,66.20
2022-08-12T10:38:37.134Z,63.72
2022-08-12T10:38:44.803Z,66.63
2022-08-12T10:40:00.801Z,60.51
2022-08-12T10:40:44.830Z,68.36
2022-08-12T10:41:58.310Z,67.57
2022-08-12T10:42:44.924Z,67.71
2022-08-12T10:43:55.922Z,66.97
2022-08-12T10:44:44.770Z,69.23
2022-08-12T10:45:43.761Z,64.70
2022-08-12T10:46:43.744Z,67.20
2022-08-12T10:48:07.795Z,65.44
2022-08-12T10:48:44.764Z,64.19
2022-08-12T10:50:02.381Z,63.40
2022-08-12T10:51:00.347Z,66.33
2022-08-12T10:52:03.180Z,67.39
2022-08-12T10:52:45.094Z,68.68
2022-08-12T10:53:46.316Z,61.48
2022-08-12T10:54:43.691Z,68.47
2022-08-12T10:55:44.696Z,66.76
2022-08-12T10:56:43.673Z,66.84
2022-08-12T10:58:13.423Z,68.33
2022-08-12T10:58:46.327Z,66.17
2022-08-12T11:00:30.697Z,68.35
2022-08-12T11:00:55.039Z,63.68
2022-08-12T11:04:17.079Z,65.87
2022-08-12T11:04:19.204Z,66.91
2022-08-12T11:04:25.226Z,64.80
2022-08-12T11:04:49.086Z,66.73
2022-08-12T11:07:05.820Z,67.01
2022-08-12T11:07:07.544Z,64.91
2022-08-12T11:08:37.583Z,66.75
2022-08-12T11:08:46.492Z,66.09
2022-08-12T11:10:00.134Z,66.15
2022-08-12T11:10:45.765Z,68.02
2022-08-12T11:12:35.370Z,67.98
2022-08-12T11:12:58.496Z,66.88
2022-08-12T11:13:48.324Z,65.92
2022-08-12T11:14:49.438Z,67.89
2022-08-12T11:16:19.419Z,67.45
2022-08-12T11:17:06.504Z,70.66
2022-08-12T11:17:53.712Z,63.22
2022-08-12T11:18:44.502Z,66.94
2022-08-12T11:19:43.534Z,64.76
2022-08-12T11:20:43.501Z,64.51
2022-08-12T11:21:57.794Z,66.15
2022-08-12T11:22:57.759Z,66.42
2022-08-12T11:23:44.469Z,63.74
2022-08-12T11:24:51.685Z,65.84
2022-08-12T11:25:57.972Z,66.68
2022-08-12T11:26:44.476Z,65.91
2022-08-12T11:27:43.706Z,64.14
2022-08-12T11:28:43.455Z,63.46
2022-08-12T11:30:02.046Z,67.02
2022-08-12T11:30:44.432Z,59.44
2022-08-12T11:32:01.970Z,68.86
2022-08-12T11:32:44.413Z,63.92
2022-08-12T11:34:05.475Z,66.77
2022-08-12T11:34:53.194Z,65.59
2022-08-12T11:35:44.395Z,66.83
2022-08-12T11:36:44.354Z,67.51
2022-08-12T11:37:55.875Z,67.57
2022-08-12T11:38:50.570Z,68.47
2022-08-12T11:40:44.322Z,70.45
2022-08-12T11:41:43.321Z,65.16
2022-08-12T11:42:46.943Z,66.85
2022-08-12T11:43:50.641Z,69.37
2022-08-12T11:44:44.514Z,66.74
2022-08-12T11:45:46.910Z,65.00
2022-08-12T11:46:43.291Z,63.17
2022-08-12T11:47:43.289Z,67.94
2022-08-12T11:48:52.387Z,61.28
2022-08-12T11:49:45.756Z,67.68
2022-08-12T11:50:44.336Z,62.76
2022-08-12T11:51:43.281Z,65.39
2022-08-12T11:52:56.848Z,67.87
2022-08-12T11:53:57.284Z,67.12
2022-08-12T11:54:51.142Z,67.14
2022-08-12T11:55:46.675Z,66.13
2022-08-12T11:56:59.042Z,64.98
2022-08-12T11:58:07.242Z,70.00
2022-08-12T12:01:59.150Z,66.55
2022-08-12T12:02:01.176Z,65.59
2022-08-12T12:02:44.254Z,64.06
2022-08-12T12:03:46.505Z,68.16
2022-08-12T12:04:43.211Z,63.99
2022-08-12T12:05:45.815Z,68.01
2022-08-12T12:06:43.161Z,62.66
2022-08-12T12:08:37.755Z,67.97
2022-08-12T12:08:49.780Z,64.45
2022-08-12T12:09:52.406Z,65.39
2022-08-12T12:10:44.138Z,65.26
2022-08-12T12:11:48.844Z,64.88
2022-08-12T12:12:49.809Z,66.48
2022-08-12T12:14:06.518Z,68.48
2022-08-12T12:14:44.129Z,67.02
2022-08-12T12:15:44.103Z,66.55
2022-08-12T12:16:48.303Z,68.32
2022-08-12T12:17:44.087Z,64.20
2022-08-12T12:18:43.080Z,64.55
2022-08-12T12:19:46.195Z,68.35
2022-08-12T12:20:43.068Z,71.14
2022-08-12T12:21:47.258Z,70.77
2022-08-12T12:22:44.117Z,67.28
2022-08-12T12:23:47.057Z,70.00
2022-08-12T12:24:43.074Z,66.47
2022-08-12T12:25:59.574Z,68.51
2022-08-12T12:26:44.023Z,65.54
2022-08-12T12:28:04.477Z,69.74
2022-08-12T12:28:54.422Z,66.86
2022-08-12T12:30:13.718Z,66.32
2022-08-12T12:30:54.689Z,65.42
2022-08-12T12:32:09.411Z,65.79
2022-08-12T12:32:53.305Z,68.40
2022-08-12T12:33:57.515Z,67.24
2022-08-12T12:35:13.467Z,65.65
2022-08-12T12:36:18.385Z,66.49
2022-08-12T12:36:43.959Z,65.77
2022-08-12T12:38:03.443Z,66.14
2022-08-12T12:38:44.936Z,64.61
2022-08-12T12:39:54.997Z,66.29
2022-08-12T12:40:44.175Z,65.04
2022-08-12T12:42:44.373Z,64.03
2022-08-12T12:42:57.941Z,70.02
2022-08-12T12:44:04.127Z,66.72
2022-08-12T12:44:53.542Z,70.23
2022-08-12T12:45:44.293Z,67.46
2022-08-12T12:46:44.644Z,66.15
2022-08-12T12:47:42.904Z,71.01
2022-08-12T12:48:44.762Z,67.93
2022-08-12T12:49:43.896Z,64.79
2022-08-12T12:50:45.726Z,65.27
2022-08-12T12:51:56.383Z,66.05
2022-08-12T12:52:43.849Z,68.03
2022-08-12T12:54:08.747Z,67.67
2022-08-12T12:54:43.864Z,64.61
2022-08-12T12:55:42.822Z,67.34
2022-08-12T12:56:43.164Z,66.30
2022-08-12T12:58:00.612Z,67.97
2022-08-12T12:58:43.937Z,67.60
2022-08-12T12:59:56.823Z,67.31
2022-08-12T13:00:51.097Z,65.10